Time;durP1;ratioP1;P1;durP2;ratioP2;P2;SDS_P1;SDS_P2;PMS_P1;PMS_P2;Temp;Humidity;BMP_temperature;BMP_pressure;BME280_temperature;BME280_humidity;BME280_pressure;Samples;Min_cycle;Max_cycle;Signal;HPM_P1;HPM_P2
2021/01/29 00:01:57;;;;;;;;;;;;;;;-1.48;86.11;98334.64;1779379;80;20483;-68
2021/01/29 00:04:25;;;;;;;;;;;;;;;-1.52;86.13;98331.89;1780525;79;20227;-68
2021/01/29 00:06:52;;;;;;;;;;;;;;;-1.54;86.15;98341.52;1780599;80;22872;-67
2021/01/29 00:09:20;;;;;;;;;;;;;;;-1.61;86.11;98332.47;1780310;80;20209;-67
2021/01/29 00:11:49;;;;;;;;;;;;;;;-1.68;86.19;98334.59;1774150;81;20218;-68
2021/01/29 00:14:16;;;;;;;;;;;;;;;-1.72;86.85;98339.61;1774140;81;20309;-68
2021/01/29 00:16:44;;;;;;;;;;;;;;;-1.78;86.91;98343.39;1773633;81;20237;-68
2021/01/29 00:19:12;;;;;;;;;;;;;;;-1.82;86.81;98342.39;1718263;83;21857;-68
2021/01/29 00:21:39;;;;;;;;;;;;;;;-1.92;86.61;98353.77;1769330;80;20219;-68
2021/01/29 00:24:07;;;;;;;;;;;;;;;-2.00;86.53;98348.22;1780337;79;20229;-68
2021/01/29 00:26:35;;;;;;;;;;;;;;;-2.12;86.57;98350.27;1748345;81;20473;-68
2021/01/29 00:29:02;;;;;;;;;;;;;;;-2.27;86.80;98355.88;1758556;81;20237;-70
2021/01/29 00:31:29;;;;;;;;;;;;;;;-2.40;86.97;98357.07;1728576;82;22083;-68
2021/01/29 00:33:57;;;;;;;;;;;;;;;-2.44;87.05;98362.50;1728535;83;20439;-68
2021/01/29 00:36:24;;;;;;;;;;;;;;;-2.50;87.07;98357.24;1737666;81;20415;-68
2021/01/29 00:38:52;;;;;;;;;;;;;;;-2.52;87.13;98365.98;1758724;81;20310;-69
2021/01/29 00:41:23;;;;;;;;;;;;;;;-2.56;87.05;98364.52;1759658;81;20241;-68
2021/01/29 00:43:51;;;;;;;;;;;;;;;-2.61;87.06;98365.62;1771707;80;22045;-68
2021/01/29 00:46:19;;;;;;;;;;;;;;;-2.64;87.10;98367.08;1765167;80;20320;-68
2021/01/29 00:48:47;;;;;;;;;;;;;;;-2.63;87.11;98366.61;1758731;81;20221;-68
2021/01/29 00:51:16;;;;;;;;;;;;;;;-2.65;87.10;98367.16;1758646;81;20417;-68
2021/01/29 00:53:43;;;;;;;;;;;;;;;-2.65;87.13;98363.29;1737491;81;20294;-68
2021/01/29 00:56:13;;;;;;;;;;;;;;;-2.69;87.13;98363.11;1753413;82;21894;-68
2021/01/29 00:58:42;;;;;;;;;;;;;;;-2.69;87.17;98369.56;1753051;82;21276;-68
2021/01/29 01:01:11;;;;;;;;;;;;;;;-2.72;87.19;98371.84;1721222;82;20215;-67
2021/01/29 01:03:40;;;;;;;;;;;;;;;-2.74;87.08;98377.56;1722622;83;20745;-68
2021/01/29 01:06:08;;;;;;;;;;;;;;;-2.80;86.99;98380.95;1722534;83;20263;-68
2021/01/29 01:08:47;;;;;;;;;;;;;;;-2.85;86.99;98382.52;1748804;82;22091;-67
2021/01/29 01:11:16;;;;;;;;;;;;;;;-2.89;86.93;98368.95;1731929;83;20241;-67
2021/01/29 01:13:48;;;;;;;;;;;;;;;-2.94;86.91;98383.86;1747463;82;20221;-67
2021/01/29 01:16:28;;;;;;;;;;;;;;;-2.96;86.95;98379.71;1633727;87;20511;-68
2021/01/29 01:18:58;;;;;;;;;;;;;;;-3.03;86.84;98380.97;1750644;82;20221;-68
2021/01/29 01:21:39;;;;;;;;;;;;;;;-3.06;86.77;98387.61;1750152;82;21847;-68
2021/01/29 01:24:09;;;;;;;;;;;;;;;-3.09;86.77;98384.71;1699973;83;20397;-68
2021/01/29 01:26:36;;;;;;;;;;;;;;;-3.13;86.73;98389.69;1750646;80;20217;-67
2021/01/29 01:29:15;;;;;;;;;;;;;;;-3.16;86.68;98388.58;1747067;80;20277;-68
2021/01/29 01:31:42;;;;;;;;;;;;;;;-3.19;86.82;98388.27;1750735;82;20431;-68
2021/01/29 01:34:28;;;;;;;;;;;;;;;-3.22;86.81;98396.19;1723001;82;20971;-68
2021/01/29 01:36:58;;;;;;;;;;;;;;;-3.22;86.90;98403.09;1714193;83;20231;-67
2021/01/29 01:39:30;;;;;;;;;;;;;;;-3.24;86.87;98394.16;1720527;83;20481;-68
2021/01/29 01:41:58;;;;;;;;;;;;;;;-3.26;86.88;98397.28;1724087;82;20316;-68
2021/01/29 01:44:32;;;;;;;;;;;;;;;-3.26;86.92;98399.03;1754036;82;20220;-67
2021/01/29 01:47:20;;;;;;;;;;;;;;;-3.25;86.94;98408.44;1753394;82;21889;-68
2021/01/29 01:50:18;;;;;;;;;;;;;;;-3.28;86.64;98415.04;1741745;82;21381;-68
2021/01/29 01:52:46;;;;;;;;;;;;;;;-3.29;86.70;98406.92;1728387;80;20249;-66
2021/01/29 01:55:21;;;;;;;;;;;;;;;-3.30;86.77;98404.80;1750877;80;20437;-66
2021/01/29 01:57:52;;;;;;;;;;;;;;;-3.31;86.64;98406.19;1775341;80;20231;-66
2021/01/29 02:00:25;;;;;;;;;;;;;;;-3.31;86.64;98401.02;1775747;80;21895;-67
2021/01/29 02:03:08;;;;;;;;;;;;;;;-3.30;86.55;98398.35;1845372;76;20187;-67
2021/01/29 02:05:54;;;;;;;;;;;;;;;-3.33;86.60;98410.60;1858592;77;20237;-67
2021/01/29 02:08:40;;;;;;;;;;;;;;;-3.35;86.63;98400.83;1824852;77;22802;-67
2021/01/29 02:11:27;;;;;;;;;;;;;;;-3.37;86.62;98409.95;1841994;77;21537;-67
2021/01/29 02:14:05;;;;;;;;;;;;;;;-3.35;86.78;98418.44;1855465;77;20241;-67
2021/01/29 02:16:44;;;;;;;;;;;;;;;-3.36;86.85;98409.03;1856026;77;20230;-67
2021/01/29 02:19:18;;;;;;;;;;;;;;;-3.34;86.90;98405.91;1845910;77;20289;-67
2021/01/29 02:22:02;;;;;;;;;;;;;;;-3.33;86.93;98411.89;1822796;78;22071;-67
2021/01/29 02:25:16;;;;;;;;;;;;;;;-3.31;87.00;98412.64;1847593;77;20369;-67
2021/01/29 02:27:48;;;;;;;;;;;;;;;-3.29;86.97;98414.67;1853654;77;20218;-66
2021/01/29 02:31:02;;;;;;;;;;;;;;;-3.30;86.98;98409.97;1824931;78;20235;-67
2021/01/29 02:33:48;;;;;;;;;;;;;;;-3.27;87.07;98412.86;1824960;78;20545;-67
2021/01/29 02:36:30;;;;;;;;;;;;;;;-3.27;87.12;98412.41;1829708;77;22248;-67
2021/01/29 02:39:18;;;;;;;;;;;;;;;-3.27;87.15;98411.11;1858439;77;20361;-67
2021/01/29 02:42:19;;;;;;;;;;;;;;;-3.26;87.16;98411.95;1857060;77;20213;-67
2021/01/29 02:45:00;;;;;;;;;;;;;;;-3.24;87.14;98417.84;1854796;77;20241;-67
2021/01/29 02:47:30;;;;;;;;;;;;;;;-3.24;87.14;98419.14;1756217;79;20223;-67
2021/01/29 02:50:16;;;;;;;;;;;;;;;-3.23;87.09;98425.97;1769742;80;22107;-67
2021/01/29 02:52:58;;;;;;;;;;;;;;;-3.23;87.08;98425.51;1768653;81;20230;-67
2021/01/29 02:55:36;;;;;;;;;;;;;;;-3.24;87.05;98423.02;1757039;81;20238;-66
2021/01/29 02:58:11;;;;;;;;;;;;;;;-3.27;86.90;98427.06;1779260;80;20226;-66
2021/01/29 03:00:56;;;;;;;;;;;;;;;-3.28;86.90;98427.52;1758203;80;20221;-67
2021/01/29 03:03:26;;;;;;;;;;;;;;;-3.29;86.89;98426.28;1762625;80;22138;-67
2021/01/29 03:06:11;;;;;;;;;;;;;;;-3.32;86.71;98426.00;1788150;80;20257;-66
2021/01/29 03:08:42;;;;;;;;;;;;;;;-3.34;86.63;98447.66;1787940;80;20231;-67
2021/01/29 03:11:31;;;;;;;;;;;;;;;-3.38;86.54;98448.72;1805310;79;20260;-67
2021/01/29 03:14:26;;;;;;;;;;;;;;;-3.42;86.46;98447.23;1804655;79;20735;-67
2021/01/29 03:17:22;;;;;;;;;;;;;;;-3.46;86.25;98443.53;1785710;79;21897;-67
2021/01/29 03:20:11;;;;;;;;;;;;;;;-3.49;86.33;98453.17;1781154;80;22516;-67
2021/01/29 03:23:01;;;;;;;;;;;;;;;-3.49;86.39;98454.00;1820446;79;20223;-67
2021/01/29 03:25:55;;;;;;;;;;;;;;;-3.52;86.26;98445.59;1819852;78;20244;-67
2021/01/29 03:28:43;;;;;;;;;;;;;;;-3.54;86.29;98457.75;1820556;79;20530;-66
2021/01/29 03:31:29;;;;;;;;;;;;;;;-3.57;86.24;98457.47;1791749;77;22063;-66
2021/01/29 03:34:24;;;;;;;;;;;;;;;-3.59;86.25;98462.31;1779787;79;20396;-66
2021/01/29 03:37:28;;;;;;;;;;;;;;;-3.63;86.15;98456.48;1814232;79;20208;-68
2021/01/29 03:40:14;;;;;;;;;;;;;;;-3.61;86.14;98458.52;1791880;80;20242;-67
2021/01/29 03:43:18;;;;;;;;;;;;;;;-3.62;86.00;98470.22;1791918;80;20210;-67
2021/01/29 03:46:19;;;;;;;;;;;;;;;-3.65;86.00;98467.35;1762769;80;21899;-66
2021/01/29 03:49:09;;;;;;;;;;;;;;;-3.69;85.69;98475.31;1764513;80;20721;-66
2021/01/29 03:52:06;;;;;;;;;;;;;;;-3.73;85.62;98495.75;1735968;81;20267;-66
2021/01/29 03:55:10;;;;;;;;;;;;;;;-3.78;85.67;98493.39;1799550;79;20243;-66
2021/01/29 03:58:18;;;;;;;;;;;;;;;-3.82;85.54;98486.73;1719663;80;20505;-67
2021/01/29 04:01:23;;;;;;;;;;;;;;;-3.85;85.54;98489.48;1815420;79;21822;-67
2021/01/29 04:04:26;;;;;;;;;;;;;;;-3.87;85.53;98489.98;1800247;79;20259;-67
2021/01/29 04:07:28;;;;;;;;;;;;;;;-3.91;85.34;98483.33;1777970;79;20265;-67
2021/01/29 04:10:18;;;;;;;;;;;;;;;-3.93;85.40;98494.19;1780390;79;20234;-67
2021/01/29 04:12:59;;;;;;;;;;;;;;;-3.95;85.20;98494.73;1780014;79;20228;-66
2021/01/29 04:15:42;;;;;;;;;;;;;;;-3.95;85.29;98493.44;1785771;79;22056;-67
2021/01/29 04:18:15;;;;;;;;;;;;;;;-3.95;85.34;98502.00;1774672;81;20373;-68
2021/01/29 04:20:50;;;;;;;;;;;;;;;-3.97;85.20;98504.26;1782416;80;20227;-67
2021/01/29 04:23:24;;;;;;;;;;;;;;;-3.98;85.31;98496.14;1789949;80;20484;-66
2021/01/29 04:25:55;;;;;;;;;;;;;;;-3.98;85.31;98496.98;1790986;79;20243;-66
2021/01/29 04:28:22;;;;;;;;;;;;;;;-3.98;85.19;98501.30;1789399;80;22789;-66
2021/01/29 04:30:51;;;;;;;;;;;;;;;-4.01;85.15;98496.31;1766148;79;21032;-66
2021/01/29 04:33:22;;;;;;;;;;;;;;;-4.03;85.08;98498.97;1799743;79;20413;-66
2021/01/29 04:35:50;;;;;;;;;;;;;;;-4.05;85.08;98496.48;1800666;79;20909;-66
2021/01/29 04:38:24;;;;;;;;;;;;;;;-4.04;84.95;98496.85;1800571;79;20238;-66
2021/01/29 04:40:55;;;;;;;;;;;;;;;-4.01;84.96;98501.47;1784808;79;22086;-67
2021/01/29 04:43:51;;;;;;;;;;;;;;;-4.04;84.80;98502.01;1799948;79;20587;-67
2021/01/29 04:46:31;;;;;;;;;;;;;;;-4.03;84.78;98497.68;1798598;79;20218;-66
2021/01/29 04:49:12;;;;;;;;;;;;;;;-4.02;84.67;98499.80;1800551;79;20241;-67
2021/01/29 04:52:06;;;;;;;;;;;;;;;-4.01;84.58;98508.75;1789923;79;20222;-67
2021/01/29 04:55:02;;;;;;;;;;;;;;;-4.01;84.19;98504.88;1781137;79;21897;-67
2021/01/29 04:57:44;;;;;;;;;;;;;;;-3.98;84.05;98506.46;1719220;79;20229;-67
2021/01/29 05:00:34;;;;;;;;;;;;;;;-3.98;83.84;98506.00;1747610;79;20259;-67
2021/01/29 05:03:47;;;;;;;;;;;;;;;-3.92;83.76;98497.14;1886140;75;20297;-69
2021/01/29 05:07:11;;;;;;;;;;;;;;;-3.93;83.58;98498.05;1833620;75;20211;-68
2021/01/29 05:10:33;;;;;;;;;;;;;;;-3.92;83.43;98496.68;1797376;78;21760;-67
2021/01/29 05:13:21;;;;;;;;;;;;;;;-3.91;83.20;98494.94;1781673;80;21273;-65
2021/01/29 05:16:09;;;;;;;;;;;;;;;-3.92;82.96;98488.11;1776441;80;20224;-66
2021/01/29 05:18:50;;;;;;;;;;;;;;;-3.94;82.56;98487.36;1795766;77;20218;-70
2021/01/29 05:21:27;;;;;;;;;;;;;;;-3.94;82.30;98495.10;1763762;80;20228;-70
2021/01/29 05:24:22;;;;;;;;;;;;;;;-3.93;82.14;98489.03;1786353;79;20585;-72
2021/01/29 05:27:00;;;;;;;;;;;;;;;-3.94;81.70;98498.97;1789210;79;20390;-68
2021/01/29 05:29:43;;;;;;;;;;;;;;;-3.98;80.91;98504.72;1776496;79;20236;-71
2021/01/29 05:32:31;;;;;;;;;;;;;;;-3.98;80.24;98506.46;1776537;79;21114;-70
2021/01/29 05:35:33;;;;;;;;;;;;;;;-3.98;80.09;98511.16;1781647;79;20502;-70
2021/01/29 05:38:25;;;;;;;;;;;;;;;-3.99;79.53;98518.98;1774142;79;22057;-70
2021/01/29 05:41:12;;;;;;;;;;;;;;;-4.01;79.31;98522.09;1782336;79;20228;-69
2021/01/29 05:43:59;;;;;;;;;;;;;;;-4.08;78.95;98531.41;1791086;79;20286;-69
2021/01/29 05:46:34;;;;;;;;;;;;;;;-4.12;78.84;98523.92;1784562;79;20281;-68
2021/01/29 05:49:20;;;;;;;;;;;;;;;-4.17;78.65;98531.86;1765165;80;20392;-66
2021/01/29 05:52:01;;;;;;;;;;;;;;;-4.23;78.54;98539.09;1774269;79;22034;-66
2021/01/29 05:54:55;;;;;;;;;;;;;;;-4.29;78.40;98538.91;1772854;79;21364;-66
2021/01/29 05:57:58;;;;;;;;;;;;;;;-4.35;78.14;98537.45;1786148;79;20217;-68
2021/01/29 06:01:05;;;;;;;;;;;;;;;-4.41;77.89;98552.40;1787524;79;20263;-66
2021/01/29 06:03:39;;;;;;;;;;;;;;;-4.43;77.77;98551.19;1773158;79;20295;-66
2021/01/29 06:06:37;;;;;;;;;;;;;;;-4.45;77.55;98558.59;1782074;79;21891;-67
2021/01/29 06:09:32;;;;;;;;;;;;;;;-4.47;77.37;98560.41;1770989;79;20224;-67
2021/01/29 06:12:09;;;;;;;;;;;;;;;-4.49;77.26;98556.62;1771361;80;20280;-67
2021/01/29 06:15:05;;;;;;;;;;;;;;;-4.52;77.12;98561.93;1770560;79;20327;-68
2021/01/29 06:17:53;;;;;;;;;;;;;;;-4.56;76.99;98571.98;1791062;79;20713;-68
2021/01/29 06:20:51;;;;;;;;;;;;;;;-4.61;76.99;98567.05;1770714;81;22083;-66
2021/01/29 06:23:25;;;;;;;;;;;;;;;-4.63;77.05;98579.18;1773745;79;20455;-66
2021/01/29 06:26:23;;;;;;;;;;;;;;;-4.64;77.07;98583.92;1795040;79;20222;-66
2021/01/29 06:29:20;;;;;;;;;;;;;;;-4.65;77.11;98579.68;1771441;79;20227;-66
2021/01/29 06:32:11;;;;;;;;;;;;;;;-4.63;77.04;98580.92;1776328;79;20241;-66
2021/01/29 06:35:08;;;;;;;;;;;;;;;-4.64;77.04;98595.52;1776992;79;22159;-66
2021/01/29 06:38:04;;;;;;;;;;;;;;;-4.68;76.84;98595.28;1786342;79;20223;-66
2021/01/29 06:40:44;;;;;;;;;;;;;;;-4.70;76.85;98605.28;1781812;79;20204;-66
2021/01/29 06:43:24;;;;;;;;;;;;;;;-4.76;76.71;98599.95;1770505;81;20218;-66
2021/01/29 06:46:19;;;;;;;;;;;;;;;-4.78;76.73;98594.04;1771146;79;20498;-67
2021/01/29 06:49:11;;;;;;;;;;;;;;;-4.79;76.75;98581.23;1770574;81;22062;-66
2021/01/29 06:51:43;;;;;;;;;;;;;;;-4.80;76.70;98571.39;1787482;79;20217;-67
2021/01/29 06:54:26;;;;;;;;;;;;;;;-4.82;76.69;98573.20;1802382;79;20515;-67
2021/01/29 06:57:06;;;;;;;;;;;;;;;-4.82;76.59;98575.78;1750719;81;20232;-67
2021/01/29 06:59:55;;;;;;;;;;;;;;;-4.78;76.39;98573.89;1754422;79;20406;-67
2021/01/29 07:02:50;;;;;;;;;;;;;;;-4.70;76.34;98577.78;1769663;81;21892;-67
2021/01/29 07:05:37;;;;;;;;;;;;;;;-4.57;76.23;98566.45;1730246;79;20391;-67
2021/01/29 07:08:14;;;;;;;;;;;;;;;-4.44;76.18;98555.97;1782193;79;20502;-67
2021/01/29 07:10:55;;;;;;;;;;;;;;;-4.34;76.07;98565.38;1770628;81;20247;-67
2021/01/29 07:13:44;;;;;;;;;;;;;;;-4.24;75.77;98568.35;1742640;79;20283;-67
2021/01/29 07:16:37;;;;;;;;;;;;;;;-4.21;75.44;98563.03;1775382;79;22072;-66
2021/01/29 07:19:32;;;;;;;;;;;;;;;-4.24;75.02;98564.48;1776523;79;20394;-67
2021/01/29 07:22:06;;;;;;;;;;;;;;;-4.32;74.87;98559.23;1771232;79;20260;-66
2021/01/29 07:24:44;;;;;;;;;;;;;;;-4.41;74.51;98553.23;1772416;79;20252;-68
2021/01/29 07:27:21;;;;;;;;;;;;;;;-4.44;74.44;98556.39;1781222;79;20244;-71
2021/01/29 07:30:26;;;;;;;;;;;;;;;-4.47;74.19;98553.97;1771523;79;21893;-70
2021/01/29 07:33:01;;;;;;;;;;;;;;;-4.49;74.12;98555.33;1773402;79;20244;-69
2021/01/29 07:35:40;;;;;;;;;;;;;;;-4.49;74.04;98562.23;1771184;79;20247;-70
2021/01/29 07:38:34;;;;;;;;;;;;;;;-4.48;73.83;98559.58;1771636;80;20220;-76
2021/01/29 07:41:18;;;;;;;;;;;;;;;-4.47;73.81;98559.95;1770679;81;20245;-75
2021/01/29 07:43:55;;;;;;;;;;;;;;;-4.48;73.52;98554.42;1749188;79;22960;-76
2021/01/29 07:46:41;;;;;;;;;;;;;;;-4.44;73.61;98555.97;1773937;79;20491;-75
2021/01/29 07:49:22;;;;;;;;;;;;;;;-4.41;73.54;98552.40;1802261;79;20293;-76
2021/01/29 07:51:56;;;;;;;;;;;;;;;-4.38;73.59;98549.66;1775554;79;20282;-75
2021/01/29 07:54:33;;;;;;;;;;;;;;;-4.39;73.48;98555.27;1773981;79;20224;-74
2021/01/29 07:57:19;;;;;;;;;;;;;;;-4.38;73.50;98558.69;1770692;81;21958;-74
2021/01/29 08:00:10;;;;;;;;;;;;;;;-4.40;73.47;98560.05;1770480;81;20224;-73
2021/01/29 08:03:19;;;;;;;;;;;;;;;-4.39;73.47;98543.67;1802275;79;20233;-72
2021/01/29 08:06:04;;;;;;;;;;;;;;;-4.36;73.41;98540.95;1685145;84;20243;-73
2021/01/29 08:08:37;;;;;;;;;;;;;;;-4.32;73.23;98535.20;1730823;81;20314;-72
2021/01/29 08:11:08;;;;;;;;;;;;;;;-4.27;73.25;98528.06;1755003;80;22063;-73
2021/01/29 08:13:59;;;;;;;;;;;;;;;-4.24;73.21;98525.36;1727589;82;21040;-72
2021/01/29 08:16:48;;;;;;;;;;;;;;;-4.23;73.21;98528.31;1763849;79;20300;-73
2021/01/29 08:19:40;;;;;;;;;;;;;;;-4.19;73.21;98531.56;1783754;79;22399;-81
2021/01/29 08:22:20;;;;;;;;;;;;;;;-4.15;73.19;98535.65;1695827;84;20275;-80
2021/01/29 08:25:33;;;;;;;;;;;;;;;-4.00;73.11;98525.88;1884118;76;20227;-76
2021/01/29 08:28:06;;;;;;;;;;;;;;;-3.97;72.93;98531.33;1843910;77;20664;-77
2021/01/29 08:31:21;;;;;;;;;;;;;;;-3.94;72.17;98513.15;1839979;77;22001;-77
2021/01/29 08:34:24;;;;;;;;;;;;;;;-3.92;72.09;98540.98;1821527;77;20261;-76
2021/01/29 08:37:14;;;;;;;;;;;;;;;-3.89;72.09;98544.69;1835664;77;20222;-81
2021/01/29 08:40:08;;;;;;;;;;;;;;;-3.84;71.96;98536.27;1819461;79;20490;-73
2021/01/29 08:42:49;;;;;;;;;;;;;;;-3.79;71.90;98548.47;1818639;79;20589;-76
2021/01/29 08:45:21;;;;;;;;;;;;;;;-3.78;71.95;98528.20;1822291;77;21825;-78
2021/01/29 08:48:03;;;;;;;;;;;;;;;-3.78;72.10;98523.88;1843956;77;20221;-76
2021/01/29 08:50:50;;;;;;;;;;;;;;;-3.79;72.05;98513.19;1852480;77;20240;-75
2021/01/29 08:53:55;;;;;;;;;;;;;;;-3.79;72.10;98502.88;1852599;77;21120;-75
2021/01/29 08:56:32;;;;;;;;;;;;;;;-3.76;72.38;98505.78;1850044;77;20492;-74
2021/01/29 08:59:08;;;;;;;;;;;;;;;-3.74;72.35;98503.94;1845615;77;21908;-75
2021/01/29 09:01:44;;;;;;;;;;;;;;;-3.74;72.33;98498.78;1829911;77;20286;-74
2021/01/29 09:04:35;;;;;;;;;;;;;;;-3.72;72.31;98505.98;1822292;77;20475;-76
2021/01/29 09:07:06;;;;;;;;;;;;;;;-3.68;72.35;98507.48;1817933;77;20234;-75
2021/01/29 09:09:36;;;;;;;;;;;;;;;-3.66;72.35;98488.91;1852615;77;20242;-75
2021/01/29 09:12:04;;;;;;;;;;;;;;;-3.64;72.48;98488.83;1849727;77;22007;-75
2021/01/29 09:14:38;;;;;;;;;;;;;;;-3.62;72.65;98473.63;1815802;78;21044;-74
2021/01/29 09:17:12;;;;;;;;;;;;;;;-3.62;72.73;98469.77;1822957;77;20170;-73
2021/01/29 09:19:44;;;;;;;;;;;;;;;-3.65;72.86;98476.38;1833852;77;20305;-73
2021/01/29 09:22:32;;;;;;;;;;;;;;;-3.65;73.03;98471.68;1830741;77;20496;-72
2021/01/29 09:25:06;;;;;;;;;;;;;;;-3.65;73.12;98467.35;1835483;78;21831;-73
2021/01/29 09:27:46;;;;;;;;;;;;;;;-3.65;73.46;98469.93;1837317;78;21202;-73
2021/01/29 09:30:23;;;;;;;;;;;;;;;-3.65;73.74;98472.52;1809859;78;20493;-73
2021/01/29 09:32:55;;;;;;;;;;;;;;;-3.66;73.76;98474.72;1792931;78;20231;-73
2021/01/29 09:35:32;;;;;;;;;;;;;;;-3.67;73.89;98474.77;1840099;78;20492;-71
2021/01/29 09:38:00;;;;;;;;;;;;;;;-3.70;74.36;98465.45;1809480;78;22053;-71
2021/01/29 09:40:33;;;;;;;;;;;;;;;-3.75;75.37;98475.19;1837593;78;20444;-70
2021/01/29 09:43:11;;;;;;;;;;;;;;;-3.81;76.44;98467.30;1830159;78;20405;-70
2021/01/29 09:45:39;;;;;;;;;;;;;;;-3.82;77.17;98473.83;1810739;78;20220;-70
2021/01/29 09:48:10;;;;;;;;;;;;;;;-3.85;77.57;98468.84;1828904;78;20214;-70
2021/01/29 09:50:38;;;;;;;;;;;;;;;-3.87;77.95;98465.48;1840931;78;22793;-71
2021/01/29 09:53:22;;;;;;;;;;;;;;;-3.88;78.30;98478.84;1823129;78;20233;-71
2021/01/29 09:56:01;;;;;;;;;;;;;;;-3.92;78.63;98477.80;1837869;78;20149;-72
2021/01/29 09:58:42;;;;;;;;;;;;;;;-3.95;78.94;98477.96;1830011;78;21113;-72
2021/01/29 10:01:12;;;;;;;;;;;;;;;-3.99;79.09;98478.55;1827734;78;20487;-72
2021/01/29 10:03:47;;;;;;;;;;;;;;;-4.04;79.34;98476.22;1829700;78;21863;-71
2021/01/29 10:06:20;;;;;;;;;;;;;;;-4.09;79.64;98464.00;1807642;79;20220;-70
2021/01/29 10:08:53;;;;;;;;;;;;;;;-4.10;79.88;98462.34;1818720;78;20261;-71
2021/01/29 10:11:25;;;;;;;;;;;;;;;-4.09;80.07;98458.84;1824215;77;20224;-72
2021/01/29 10:14:19;;;;;;;;;;;;;;;-4.09;80.14;98453.69;1837694;78;20215;-71
2021/01/29 10:16:53;;;;;;;;;;;;;;;-4.07;80.23;98462.63;1835831;78;21887;-73
2021/01/29 10:19:42;;;;;;;;;;;;;;;-4.10;80.30;98461.05;1838837;78;20358;-73
2021/01/29 10:22:25;;;;;;;;;;;;;;;-4.10;80.44;98448.16;1820584;78;20226;-71
2021/01/29 10:24:57;;;;;;;;;;;;;;;-4.09;80.58;98444.66;1810163;78;20216;-71
2021/01/29 10:27:33;;;;;;;;;;;;;;;-4.07;80.62;98437.69;1808380;78;20226;-70
2021/01/29 10:30:20;;;;;;;;;;;;;;;-4.03;80.67;98431.94;1831335;78;22051;-70
2021/01/29 10:33:27;;;;;;;;;;;;;;;-4.03;80.78;98433.22;1817696;78;22560;-70
2021/01/29 10:36:10;;;;;;;;;;;;;;;-4.04;80.93;98431.56;1803753;78;20236;-71
2021/01/29 10:38:41;;;;;;;;;;;;;;;-4.02;81.05;98425.03;1817680;78;20275;-70
2021/01/29 10:41:34;;;;;;;;;;;;;;;-4.03;81.08;98421.62;1807057;79;20272;-70
2021/01/29 10:44:26;;;;;;;;;;;;;;;-4.04;80.99;98421.25;1808139;79;21855;-69
2021/01/29 10:47:06;;;;;;;;;;;;;;;-4.06;81.03;98420.47;1808905;78;20345;-69
2021/01/29 10:49:59;;;;;;;;;;;;;;;-4.04;81.06;98414.34;1807477;78;20217;-69
2021/01/29 10:53:04;;;;;;;;;;;;;;;-4.04;80.97;98409.19;1806526;79;20220;-70
2021/01/29 10:55:34;;;;;;;;;;;;;;;-4.05;80.96;98406.23;1783354;80;20497;-71
2021/01/29 10:58:06;;;;;;;;;;;;;;;-4.04;80.97;98413.51;1744758;82;21894;-72
2021/01/29 11:00:34;;;;;;;;;;;;;;;-4.04;80.99;98420.78;1763023;81;20453;-72
2021/01/29 11:03:08;;;;;;;;;;;;;;;-4.01;80.98;98425.41;1763416;81;20287;-72
2021/01/29 11:05:42;;;;;;;;;;;;;;;-4.00;80.96;98425.31;1778212;80;20213;-70
2021/01/29 11:08:31;;;;;;;;;;;;;;;-3.98;80.95;98428.64;1732151;82;20245;-71
2021/01/29 11:11:02;;;;;;;;;;;;;;;-4.00;80.88;98422.74;1716537;82;21897;-71
2021/01/29 11:13:58;;;;;;;;;;;;;;;-4.01;80.98;98422.83;1744940;81;20376;-74
2021/01/29 11:16:29;;;;;;;;;;;;;;;-4.01;81.01;98417.66;1756854;81;20227;-74
2021/01/29 11:19:00;;;;;;;;;;;;;;;-4.01;81.07;98417.21;1757353;81;20457;-72
2021/01/29 11:21:46;;;;;;;;;;;;;;;-3.98;81.12;98415.75;1754275;81;20276;-75
2021/01/29 11:24:22;;;;;;;;;;;;;;;-3.95;81.19;98409.63;1726043;81;22070;-68
2021/01/29 11:27:07;;;;;;;;;;;;;;;-3.92;81.25;98410.75;1747826;80;20374;-72
2021/01/29 11:29:47;;;;;;;;;;;;;;;-3.91;81.34;98412.41;1756720;81;20266;-67
2021/01/29 11:32:21;;;;;;;;;;;;;;;-3.88;81.39;98413.07;1754019;81;20229;-68
2021/01/29 11:35:13;;;;;;;;;;;;;;;-3.89;81.42;98405.42;1734479;81;20238;-67
2021/01/29 11:37:59;;;;;;;;;;;;;;;-3.91;81.47;98402.92;1745684;81;22043;-67
2021/01/29 11:40:33;;;;;;;;;;;;;;;-3.89;81.58;98405.42;1750545;81;21070;-70
2021/01/29 11:43:19;;;;;;;;;;;;;;;-3.86;81.64;98398.80;1757237;81;20295;-69
2021/01/29 11:45:50;;;;;;;;;;;;;;;-3.83;81.74;98397.38;1753359;81;20223;-69
2021/01/29 11:48:24;;;;;;;;;;;;;;;-3.79;81.78;98401.44;1751286;81;20270;-68
2021/01/29 11:51:02;;;;;;;;;;;;;;;-3.76;81.82;98401.30;1748306;81;22954;-69
2021/01/29 11:53:37;;;;;;;;;;;;;;;-3.76;81.85;98409.88;1730368;83;20973;-66
2021/01/29 11:56:07;;;;;;;;;;;;;;;-3.73;81.95;98398.55;1755130;81;20234;-68
2021/01/29 11:58:41;;;;;;;;;;;;;;;-3.69;82.04;98401.79;1705857;81;21230;-68
2021/01/29 12:01:24;;;;;;;;;;;;;;;-3.66;82.05;98399.90;1730766;81;20224;-67
2021/01/29 12:04:05;;;;;;;;;;;;;;;-3.61;82.12;98401.77;1730430;83;22074;-68
2021/01/29 12:06:35;;;;;;;;;;;;;;;-3.58;82.19;98397.72;1730176;83;20366;-67
2021/01/29 12:09:10;;;;;;;;;;;;;;;-3.56;82.27;98397.66;1730365;83;20221;-68
2021/01/29 12:12:01;;;;;;;;;;;;;;;-3.56;82.38;98399.78;1730413;83;20242;-67
2021/01/29 12:15:11;;;;;;;;;;;;;;;-3.56;82.53;98397.20;1730288;82;20230;-67
2021/01/29 12:17:39;;;;;;;;;;;;;;;-3.54;82.71;98397.12;1730430;82;23254;-67
2021/01/29 12:20:10;;;;;;;;;;;;;;;-3.52;82.87;98402.56;1728201;81;20334;-67
2021/01/29 12:22:48;;;;;;;;;;;;;;;-3.49;82.95;98409.30;1730343;83;20285;-67
2021/01/29 12:25:29;;;;;;;;;;;;;;;-3.49;83.03;98408.00;1730247;82;20231;-67
2021/01/29 12:28:33;;;;;;;;;;;;;;;-3.47;83.07;98399.75;1730414;83;20214;-67
2021/01/29 12:31:16;;;;;;;;;;;;;;;-3.46;83.12;98400.95;1730519;83;22839;-70
2021/01/29 12:33:51;;;;;;;;;;;;;;;-3.46;83.18;98404.83;1730404;83;20271;-68
2021/01/29 12:36:19;;;;;;;;;;;;;;;-3.48;83.25;98401.47;1743717;81;20239;-67
2021/01/29 12:39:02;;;;;;;;;;;;;;;-3.47;83.33;98401.04;1736795;81;20236;-68
2021/01/29 12:41:36;;;;;;;;;;;;;;;-3.47;83.38;98395.88;1730449;83;20222;-67
2021/01/29 12:44:33;;;;;;;;;;;;;;;-3.48;83.45;98398.89;1749623;81;21897;-67
2021/01/29 12:47:06;;;;;;;;;;;;;;;-3.48;83.48;98404.05;1760240;81;20383;-67
2021/01/29 12:49:47;;;;;;;;;;;;;;;-3.49;83.52;98397.69;1785245;80;20238;-74
2021/01/29 12:52:26;;;;;;;;;;;;;;;-3.47;83.53;98399.75;1783735;80;20497;-69
2021/01/29 12:55:04;;;;;;;;;;;;;;;-3.48;83.54;98393.73;1770021;81;20211;-67
2021/01/29 12:57:31;;;;;;;;;;;;;;;-3.46;83.51;98402.24;1770063;81;22111;-66
2021/01/29 13:00:10;;;;;;;;;;;;;;;-3.44;83.54;98397.45;1769929;81;20266;-67
2021/01/29 13:03:03;;;;;;;;;;;;;;;-3.42;83.52;98396.45;1770035;80;20275;-67
2021/01/29 13:06:00;;;;;;;;;;;;;;;-3.40;83.49;98389.45;1769987;81;20303;-67
2021/01/29 13:08:46;;;;;;;;;;;;;;;-3.38;83.46;98390.64;1778549;80;20269;-67
2021/01/29 13:11:33;;;;;;;;;;;;;;;-3.40;83.43;98385.58;1763812;80;22725;-67
2021/01/29 13:14:26;;;;;;;;;;;;;;;-3.41;83.42;98388.24;1775928;80;20366;-67
2021/01/29 13:17:26;;;;;;;;;;;;;;;-3.41;83.43;98390.83;1785295;80;20222;-67
2021/01/29 13:20:03;;;;;;;;;;;;;;;-3.41;83.41;98389.08;1754265;82;20455;-69
2021/01/29 13:22:37;;;;;;;;;;;;;;;-3.42;83.41;98389.99;1754251;82;20225;-67
2021/01/29 13:25:17;;;;;;;;;;;;;;;-3.41;83.40;98388.24;1754099;82;21897;-67
2021/01/29 13:28:03;;;;;;;;;;;;;;;-3.42;83.40;98387.88;1764853;80;21541;-70
2021/01/29 13:30:36;;;;;;;;;;;;;;;-3.43;83.37;98386.21;1770195;81;20224;-67
2021/01/29 13:33:24;;;;;;;;;;;;;;;-3.44;83.35;98393.58;1770170;81;20469;-67
2021/01/29 13:36:24;;;;;;;;;;;;;;;-3.44;83.35;98390.54;1770180;81;20215;-69
2021/01/29 13:38:52;;;;;;;;;;;;;;;-3.44;83.34;98389.71;1770180;80;22062;-70
2021/01/29 13:41:23;;;;;;;;;;;;;;;-3.47;83.32;98376.06;1783391;80;20226;-70
2021/01/29 13:43:50;;;;;;;;;;;;;;;-3.49;83.33;98376.58;1784216;80;20210;-74
2021/01/29 13:46:32;;;;;;;;;;;;;;;-3.49;83.33;98388.19;1785198;80;20305;-70
2021/01/29 13:49:15;;;;;;;;;;;;;;;-3.50;83.33;98389.57;1765459;80;20224;-69
2021/01/29 13:51:45;;;;;;;;;;;;;;;-3.50;83.32;98387.82;1753153;82;20225;-69
2021/01/29 13:54:13;;;;;;;;;;;;;;;-3.50;83.30;98389.11;1754179;82;20371;-69
2021/01/29 13:56:47;;;;;;;;;;;;;;;-3.50;83.29;98394.27;1754216;82;20228;-69
2021/01/29 13:59:27;;;;;;;;;;;;;;;-3.50;83.26;98381.37;1754267;82;20307;-69
2021/01/29 14:02:01;;;;;;;;;;;;;;;-3.49;83.24;98392.06;1766240;80;20223;-69
2021/01/29 14:04:36;;;;;;;;;;;;;;;-3.50;83.21;98391.69;1769510;81;21902;-68